createdAt,value
2019-01-24T00:00:15.804Z,26.65
2019-01-24T00:00:51.956Z,26.37
2019-01-24T00:01:26.467Z,23.83
2019-01-24T00:02:00.970Z,23.60
2019-01-24T00:02:35.537Z,29.20
2019-01-24T00:03:10.088Z,25.85
2019-01-24T00:03:44.609Z,24.25
2019-01-24T00:04:19.176Z,24.45
2019-01-24T00:04:53.938Z,28.80
2019-01-24T00:05:28.864Z,25.97
2019-01-24T00:06:03.371Z,25.43
2019-01-24T00:06:38.133Z,23.80
2019-01-24T00:07:12.707Z,24.43
2019-01-24T00:07:47.203Z,23.22
2019-01-24T00:08:21.713Z,25.00
2019-01-24T00:08:56.220Z,24.75
2019-01-24T00:09:30.809Z,24.45
2019-01-24T00:10:11.161Z,25.17
2019-01-24T00:10:45.760Z,24.12
2019-01-24T00:11:20.273Z,24.40
2019-01-24T00:11:55.053Z,24.90
2019-01-24T00:12:31.028Z,23.92
2019-01-24T00:13:05.557Z,26.15
2019-01-24T00:13:40.144Z,23.12
2019-01-24T00:14:14.825Z,23.75
2019-01-24T00:14:49.413Z,22.40
2019-01-24T00:15:23.934Z,24.27
2019-01-24T00:16:00.085Z,25.48
2019-01-24T00:16:34.877Z,25.23
2019-01-24T00:17:09.397Z,25.37
2019-01-24T00:17:44.061Z,24.50
2019-01-24T00:18:18.636Z,23.87
2019-01-24T00:18:53.233Z,24.12
2019-01-24T00:19:27.840Z,23.70
2019-01-24T00:20:02.445Z,25.08
2019-01-24T00:20:37.025Z,26.05
2019-01-24T00:21:11.532Z,24.67
2019-01-24T00:22:02.231Z,25.50
2019-01-24T00:22:36.424Z,27.98
2019-01-24T00:23:11.049Z,25.52
2019-01-24T00:23:45.608Z,25.60
2019-01-24T00:24:20.169Z,25.57
2019-01-24T00:24:55.791Z,25.55
2019-01-24T00:25:30.305Z,22.00
2019-01-24T00:26:04.960Z,22.73
2019-01-24T00:26:39.584Z,24.15
2019-01-24T00:27:14.344Z,26.68
2019-01-24T00:27:48.914Z,23.73
2019-01-24T00:28:23.508Z,23.42
2019-01-24T00:28:58.095Z,23.35
2019-01-24T00:29:32.600Z,25.32
2019-01-24T00:30:15.082Z,24.80
2019-01-24T00:30:49.586Z,25.77
2019-01-24T00:31:24.175Z,25.52
2019-01-24T00:31:58.745Z,26.02
2019-01-24T00:32:33.318Z,26.95
2019-01-24T00:33:07.919Z,25.55
2019-01-24T00:33:42.572Z,25.68
2019-01-24T00:34:23.050Z,24.52
2019-01-24T00:34:54.756Z,26.60
2019-01-24T00:35:31.800Z,26.12
2019-01-24T00:36:06.462Z,23.60
2019-01-24T00:36:41.077Z,24.60
2019-01-24T00:37:15.873Z,23.55
2019-01-24T00:37:50.439Z,25.08
2019-01-24T00:38:25.097Z,25.05
2019-01-24T00:38:59.663Z,22.10
2019-01-24T00:39:34.316Z,23.83
2019-01-24T00:40:13.902Z,24.10
2019-01-24T00:40:49.230Z,24.45
2019-01-24T00:41:23.807Z,23.60
2019-01-24T00:41:58.512Z,22.20
2019-01-24T00:42:33.041Z,25.90
2019-01-24T00:43:09.200Z,25.25
2019-01-24T00:43:43.738Z,24.65
2019-01-24T00:44:18.341Z,25.10
2019-01-24T00:44:52.924Z,26.45
2019-01-24T00:45:27.509Z,23.65
2019-01-24T00:46:02.205Z,23.80
2019-01-24T00:46:36.908Z,24.25
2019-01-24T00:47:11.495Z,25.57
2019-01-24T00:47:46.140Z,24.57
2019-01-24T00:48:22.269Z,20.77
2019-01-24T00:48:59.389Z,22.60
2019-01-24T00:49:33.021Z,24.87
2019-01-24T00:50:10.599Z,23.40
2019-01-24T00:50:45.233Z,25.27
2019-01-24T00:51:21.310Z,23.05
2019-01-24T00:51:56.287Z,26.85
2019-01-24T00:52:33.684Z,23.18
2019-01-24T00:53:08.368Z,21.62
2019-01-24T00:53:44.202Z,22.52
2019-01-24T00:54:18.745Z,21.48
2019-01-24T00:54:53.738Z,22.62
2019-01-24T00:55:28.426Z,21.68
2019-01-24T00:56:02.986Z,21.30
2019-01-24T00:56:37.666Z,21.55
2019-01-24T00:57:12.254Z,23.70
2019-01-24T00:57:49.660Z,23.15
2019-01-24T00:58:24.434Z,22.15
2019-01-24T00:58:59.078Z,22.62
2019-01-24T00:59:33.674Z,23.00
2019-01-24T01:00:23.774Z,22.35
2019-01-24T01:01:17.613Z,21.55
2019-01-24T01:01:52.279Z,22.00
2019-01-24T01:02:26.854Z,22.07
2019-01-24T01:03:01.347Z,21.90
2019-01-24T01:03:36.159Z,22.85
2019-01-24T01:04:10.769Z,22.75
2019-01-24T01:04:45.322Z,23.73
2019-01-24T01:05:21.060Z,24.15
2019-01-24T01:05:55.565Z,21.15
2019-01-24T01:06:30.193Z,23.35
2019-01-24T01:07:05.605Z,23.12
2019-01-24T01:07:40.305Z,24.52
2019-01-24T01:08:14.972Z,23.55
2019-01-24T01:08:49.570Z,24.15
2019-01-24T01:09:24.158Z,24.18
2019-01-24T01:09:58.669Z,21.02
2019-01-24T01:10:33.196Z,24.55
2019-01-24T01:11:07.828Z,24.77
2019-01-24T01:11:42.554Z,23.62
2019-01-24T01:12:17.068Z,24.02
2019-01-24T01:12:51.805Z,25.40
2019-01-24T01:13:26.326Z,25.37
2019-01-24T01:14:00.944Z,23.02
2019-01-24T01:14:35.516Z,24.70
2019-01-24T01:15:12.932Z,23.50
2019-01-24T01:15:47.451Z,24.20
2019-01-24T01:16:22.057Z,22.32
2019-01-24T01:16:56.718Z,24.90
2019-01-24T01:17:31.397Z,24.20
2019-01-24T01:18:06.048Z,25.23
2019-01-24T01:18:40.683Z,24.25
2019-01-24T01:19:15.280Z,25.20
2019-01-24T01:19:49.830Z,25.65
2019-01-24T01:20:24.425Z,24.00
2019-01-24T01:20:59.244Z,23.87
2019-01-24T01:21:53.140Z,25.10
2019-01-24T01:22:27.715Z,24.37
2019-01-24T01:23:02.318Z,22.65
2019-01-24T01:23:36.885Z,22.98
2019-01-24T01:24:11.482Z,23.30
2019-01-24T01:24:45.996Z,23.02
2019-01-24T01:25:20.624Z,22.05
2019-01-24T01:25:55.214Z,24.15
2019-01-24T01:26:32.013Z,24.80
2019-01-24T01:27:06.895Z,22.80
2019-01-24T01:27:41.483Z,23.70
2019-01-24T01:28:16.077Z,25.62
2019-01-24T01:28:50.632Z,24.65
2019-01-24T01:29:25.163Z,25.08
2019-01-24T01:30:00.060Z,25.08
2019-01-24T01:30:34.766Z,24.15
2019-01-24T01:31:09.360Z,25.15
2019-01-24T01:31:44.016Z,26.60
2019-01-24T01:32:18.605Z,24.77
2019-01-24T01:32:53.512Z,24.00
2019-01-24T01:33:28.044Z,26.05
2019-01-24T01:34:02.633Z,25.55
2019-01-24T01:34:37.206Z,25.12
2019-01-24T01:35:11.873Z,26.10
2019-01-24T01:35:46.492Z,27.05
2019-01-24T01:36:21.061Z,27.48
2019-01-24T01:36:55.569Z,27.15
2019-01-24T01:37:30.146Z,26.75
2019-01-24T01:38:04.877Z,23.65
2019-01-24T01:38:39.444Z,25.40
2019-01-24T01:39:14.142Z,24.40
2019-01-24T01:39:48.715Z,23.67
2019-01-24T01:40:24.872Z,23.70
2019-01-24T01:40:59.467Z,22.52
2019-01-24T01:41:34.088Z,24.18
2019-01-24T01:42:09.821Z,24.75
2019-01-24T01:42:44.660Z,26.65
2019-01-24T01:43:19.268Z,23.67
2019-01-24T01:43:55.058Z,25.48
2019-01-24T01:44:29.573Z,25.90
2019-01-24T01:45:06.688Z,25.75
2019-01-24T01:45:41.397Z,25.90
2019-01-24T01:46:15.900Z,24.45
2019-01-24T01:46:50.481Z,25.52
2019-01-24T01:47:24.998Z,26.85
2019-01-24T01:47:59.520Z,25.57
2019-01-24T01:48:34.074Z,24.60
2019-01-24T01:49:08.583Z,26.40
2019-01-24T01:49:43.167Z,25.32
2019-01-24T01:50:20.105Z,23.27
2019-01-24T01:51:01.665Z,27.07
2019-01-24T01:51:36.331Z,26.97
2019-01-24T01:52:10.973Z,24.98
2019-01-24T01:52:45.528Z,24.23
2019-01-24T01:53:20.180Z,27.80
2019-01-24T01:53:54.773Z,24.80
2019-01-24T01:54:29.280Z,25.37
2019-01-24T01:55:04.263Z,24.07
2019-01-24T01:55:38.845Z,26.00
2019-01-24T01:56:13.456Z,24.80
2019-01-24T01:56:48.303Z,27.60
2019-01-24T01:57:22.903Z,23.32
2019-01-24T01:57:57.445Z,24.35
2019-01-24T01:58:33.240Z,24.63
2019-01-24T01:59:07.736Z,28.38
2019-01-24T01:59:42.253Z,25.30
2019-01-24T02:00:19.680Z,26.48
2019-01-24T02:00:54.193Z,23.98
2019-01-24T02:01:29.837Z,26.00
2019-01-24T02:02:04.608Z,25.23
2019-01-24T02:02:39.232Z,25.35
2019-01-24T02:03:13.861Z,25.57
2019-01-24T02:03:48.497Z,24.60
2019-01-24T02:04:25.193Z,25.37
2019-01-24T02:04:59.483Z,24.75
2019-01-24T02:05:34.081Z,25.05
2019-01-24T02:06:11.507Z,22.42
2019-01-24T02:06:46.308Z,26.05
2019-01-24T02:07:20.831Z,25.08
2019-01-24T02:07:55.588Z,25.55
2019-01-24T02:08:31.341Z,25.72
2019-01-24T02:09:09.055Z,25.68
2019-01-24T02:09:43.558Z,24.52
2019-01-24T02:10:20.894Z,23.12
2019-01-24T02:10:55.805Z,23.77
2019-01-24T02:11:32.006Z,25.02
2019-01-24T02:12:06.544Z,23.98
2019-01-24T02:13:00.555Z,23.98
2019-01-24T02:13:35.059Z,25.25
2019-01-24T02:14:09.821Z,23.95
2019-01-24T02:14:44.528Z,24.52
2019-01-24T02:15:19.441Z,25.45
2019-01-24T02:15:54.012Z,25.40
2019-01-24T02:16:28.526Z,25.05
2019-01-24T02:17:03.104Z,25.50
2019-01-24T02:17:37.610Z,26.02
2019-01-24T02:18:12.178Z,27.20
2019-01-24T02:18:46.713Z,24.60
2019-01-24T02:19:21.549Z,23.42
2019-01-24T02:19:56.206Z,26.87
2019-01-24T02:20:30.812Z,24.23
2019-01-24T02:21:05.493Z,26.10
2019-01-24T02:21:40.055Z,23.50
2019-01-24T02:22:14.669Z,23.83
2019-01-24T02:22:49.558Z,23.55
2019-01-24T02:23:24.205Z,23.87
2019-01-24T02:23:58.708Z,24.23
2019-01-24T02:24:34.838Z,24.55
2019-01-24T02:25:10.787Z,24.43
2019-01-24T02:25:45.302Z,25.65
2019-01-24T02:26:19.924Z,24.92
2019-01-24T02:26:54.729Z,25.92
2019-01-24T02:27:29.241Z,26.75
2019-01-24T02:28:24.660Z,25.35
2019-01-24T02:29:01.969Z,22.75
2019-01-24T02:29:36.570Z,23.45
2019-01-24T02:30:22.857Z,25.52
2019-01-24T02:30:57.513Z,24.23
2019-01-24T02:31:32.174Z,25.72
2019-01-24T02:32:06.775Z,23.67
2019-01-24T02:32:41.347Z,25.57
2019-01-24T02:33:18.554Z,25.00
2019-01-24T02:33:52.164Z,24.12
2019-01-24T02:34:26.731Z,23.40
2019-01-24T02:35:01.560Z,25.62
2019-01-24T02:35:36.217Z,24.20
2019-01-24T02:36:10.738Z,23.65
2019-01-24T02:36:45.249Z,24.32
2019-01-24T02:37:19.824Z,26.05
2019-01-24T02:37:54.589Z,26.07
2019-01-24T02:38:29.204Z,24.07
2019-01-24T02:39:05.324Z,25.90
2019-01-24T02:39:39.863Z,26.05
2019-01-24T02:40:14.612Z,25.90
2019-01-24T02:40:49.134Z,25.37
2019-01-24T02:41:23.770Z,26.23
2019-01-24T02:41:59.882Z,24.95
2019-01-24T02:42:34.432Z,24.07
2019-01-24T02:43:08.949Z,24.20
2019-01-24T02:43:43.461Z,24.43
2019-01-24T02:44:18.055Z,21.70
2019-01-24T02:44:52.808Z,25.32
2019-01-24T02:45:27.317Z,24.37
2019-01-24T02:46:01.808Z,24.87
2019-01-24T02:46:36.375Z,23.70
2019-01-24T02:47:10.896Z,24.45
2019-01-24T02:47:45.474Z,23.55
2019-01-24T02:48:20.043Z,24.35
2019-01-24T02:48:54.634Z,24.82
2019-01-24T02:49:29.353Z,25.17
2019-01-24T02:50:06.750Z,23.18
2019-01-24T02:50:41.269Z,23.10
2019-01-24T02:51:15.866Z,22.55
2019-01-24T02:51:50.376Z,24.20
2019-01-24T02:52:24.898Z,24.10
2019-01-24T02:52:59.477Z,24.60
2019-01-24T02:53:34.086Z,24.35
2019-01-24T02:54:08.646Z,23.25
2019-01-24T02:54:43.313Z,23.90
2019-01-24T02:55:17.895Z,23.87
2019-01-24T02:55:52.559Z,22.95
2019-01-24T02:56:27.103Z,26.48
2019-01-24T02:57:01.596Z,25.17
2019-01-24T02:57:36.132Z,28.07
2019-01-24T02:58:10.709Z,25.55
2019-01-24T02:58:45.313Z,24.70
2019-01-24T02:59:20.057Z,27.67
2019-01-24T02:59:55.009Z,24.50
2019-01-24T03:00:29.585Z,26.70
2019-01-24T03:01:04.634Z,24.05
2019-01-24T03:01:39.234Z,26.50
2019-01-24T03:02:13.905Z,27.90
2019-01-24T03:02:48.743Z,24.82
2019-01-24T03:03:23.251Z,23.27
2019-01-24T03:03:57.838Z,27.05
2019-01-24T03:04:32.348Z,24.25
2019-01-24T03:05:11.933Z,24.92
2019-01-24T03:05:46.465Z,24.92
2019-01-24T03:06:21.072Z,25.68
2019-01-24T03:06:55.589Z,25.92
2019-01-24T03:07:30.250Z,23.15
2019-01-24T03:08:04.899Z,24.55
2019-01-24T03:08:39.435Z,24.05
2019-01-24T03:09:14.245Z,26.27
2019-01-24T03:09:48.791Z,23.85
2019-01-24T03:10:24.973Z,26.70
2019-01-24T03:10:59.463Z,25.95
2019-01-24T03:11:34.162Z,26.30
2019-01-24T03:12:08.745Z,25.02
2019-01-24T03:12:43.339Z,25.50
2019-01-24T03:13:17.984Z,23.50
2019-01-24T03:13:52.606Z,25.68
2019-01-24T03:14:27.185Z,23.38
2019-01-24T03:15:01.935Z,23.45
2019-01-24T03:15:36.493Z,25.52
2019-01-24T03:16:11.141Z,28.60
2019-01-24T03:16:45.670Z,25.37
2019-01-24T03:17:20.553Z,27.27
2019-01-24T03:17:55.138Z,26.85
2019-01-24T03:18:29.668Z,26.50
2019-01-24T03:19:10.267Z,24.80
2019-01-24T03:19:48.265Z,23.85
2019-01-24T03:20:22.790Z,25.20
2019-01-24T03:20:57.405Z,23.98
2019-01-24T03:21:32.494Z,25.70
2019-01-24T03:22:13.092Z,24.57
2019-01-24T03:22:49.607Z,25.62
2019-01-24T03:23:24.192Z,25.12
2019-01-24T03:23:58.767Z,27.35
2019-01-24T03:24:41.967Z,27.10
2019-01-24T03:25:35.812Z,25.55
2019-01-24T03:26:10.437Z,26.62
2019-01-24T03:26:46.617Z,23.47
2019-01-24T03:27:21.443Z,26.85
2019-01-24T03:27:55.957Z,26.87
2019-01-24T03:28:30.823Z,25.60
2019-01-24T03:29:07.188Z,26.00
2019-01-24T03:29:44.094Z,25.85
2019-01-24T03:30:21.411Z,26.73
2019-01-24T03:30:55.922Z,25.27
2019-01-24T03:31:31.121Z,28.62
2019-01-24T03:32:05.864Z,26.85
2019-01-24T03:32:40.459Z,25.70
2019-01-24T03:33:15.366Z,24.55
2019-01-24T03:33:49.896Z,25.27
2019-01-24T03:34:26.674Z,24.35
2019-01-24T03:35:04.367Z,24.77
2019-01-24T03:35:37.617Z,25.43
2019-01-24T03:36:12.121Z,25.62
2019-01-24T03:36:46.679Z,27.77
2019-01-24T03:37:21.449Z,27.05
2019-01-24T03:37:55.962Z,26.85
2019-01-24T03:38:30.470Z,26.17
2019-01-24T03:39:07.768Z,26.25
2019-01-24T03:39:45.290Z,28.30
2019-01-24T03:40:20.010Z,23.75
2019-01-24T03:40:56.780Z,25.82
2019-01-24T03:41:31.405Z,26.50
2019-01-24T03:42:09.093Z,24.15
2019-01-24T03:42:44.267Z,27.25
2019-01-24T03:43:19.413Z,25.70
2019-01-24T03:43:57.254Z,25.05
2019-01-24T03:44:31.389Z,26.87
2019-01-24T03:45:09.054Z,26.40
2019-01-24T03:45:49.996Z,26.20
2019-01-24T03:46:24.506Z,27.10
2019-01-24T03:46:59.038Z,23.62
2019-01-24T03:47:35.377Z,25.00
2019-01-24T03:48:20.734Z,27.25
2019-01-24T03:48:56.775Z,25.55
2019-01-24T03:49:31.383Z,27.65
2019-01-24T03:50:09.171Z,26.17
2019-01-24T03:50:43.688Z,27.13
2019-01-24T03:51:18.319Z,25.85
2019-01-24T03:51:54.651Z,26.20
2019-01-24T03:52:29.226Z,27.42
2019-01-24T03:53:03.749Z,24.23
2019-01-24T03:53:38.344Z,24.32
2019-01-24T03:54:12.873Z,26.80
2019-01-24T03:54:47.396Z,25.72
2019-01-24T03:55:22.762Z,25.60
2019-01-24T03:55:57.368Z,27.13
2019-01-24T03:56:32.281Z,25.77
2019-01-24T03:57:06.944Z,25.77
2019-01-24T03:57:41.477Z,27.52
2019-01-24T03:58:16.310Z,28.10
2019-01-24T03:58:50.903Z,26.23
2019-01-24T03:59:25.584Z,26.30
2019-01-24T04:00:00.370Z,24.70
2019-01-24T04:00:35.082Z,25.45
2019-01-24T04:01:09.594Z,27.90
2019-01-24T04:01:44.428Z,26.95
2019-01-24T04:02:19.062Z,26.23
2019-01-24T04:02:53.927Z,26.97
2019-01-24T04:03:28.515Z,28.83
2019-01-24T04:04:03.165Z,27.62
2019-01-24T04:04:37.674Z,26.77
2019-01-24T04:05:12.843Z,27.20
2019-01-24T04:05:47.487Z,25.82
2019-01-24T04:06:23.024Z,25.23
2019-01-24T04:06:57.532Z,25.80
2019-01-24T04:07:32.038Z,27.50
2019-01-24T04:08:06.668Z,26.02
2019-01-24T04:08:41.205Z,25.72
2019-01-24T04:09:15.776Z,25.88
2019-01-24T04:09:50.375Z,26.42
2019-01-24T04:10:24.951Z,26.95
2019-01-24T04:10:59.457Z,26.80
2019-01-24T04:11:34.076Z,26.93
2019-01-24T04:12:08.702Z,23.60
2019-01-24T04:12:43.684Z,25.45
2019-01-24T04:13:18.264Z,24.98
2019-01-24T04:13:53.758Z,26.50
2019-01-24T04:14:30.121Z,23.95
2019-01-24T04:15:07.364Z,23.27
2019-01-24T04:15:41.884Z,25.17
2019-01-24T04:16:16.601Z,26.30
2019-01-24T04:16:51.188Z,23.85
2019-01-24T04:17:26.003Z,25.65
2019-01-24T04:18:00.740Z,26.37
2019-01-24T04:18:35.711Z,25.55
2019-01-24T04:19:11.211Z,25.17
2019-01-24T04:19:45.720Z,24.27
2019-01-24T04:20:20.355Z,27.13
2019-01-24T04:20:54.859Z,25.30
2019-01-24T04:21:29.371Z,24.80
2019-01-24T04:22:03.985Z,25.80
2019-01-24T04:22:38.493Z,27.58
2019-01-24T04:23:13.001Z,24.02
2019-01-24T04:23:50.211Z,25.82
2019-01-24T04:24:23.781Z,24.40
2019-01-24T04:24:58.289Z,24.57
2019-01-24T04:25:34.768Z,26.65
2019-01-24T04:26:09.286Z,26.97
2019-01-24T04:26:44.208Z,25.97
2019-01-24T04:27:18.796Z,26.12
2019-01-24T04:27:53.398Z,27.93
2019-01-24T04:28:27.970Z,25.43
2019-01-24T04:29:02.551Z,25.15
2019-01-24T04:29:37.136Z,26.27
2019-01-24T04:30:19.558Z,27.48
2019-01-24T04:30:55.598Z,26.90
2019-01-24T04:31:30.098Z,24.77
2019-01-24T04:32:04.614Z,25.35
2019-01-24T04:32:42.754Z,27.45
2019-01-24T04:33:17.267Z,27.22
2019-01-24T04:33:51.773Z,26.77
2019-01-24T04:34:26.461Z,26.12
2019-01-24T04:35:01.048Z,26.65
2019-01-24T04:35:35.699Z,26.65
2019-01-24T04:36:10.194Z,27.05
2019-01-24T04:36:44.716Z,28.40
2019-01-24T04:37:19.228Z,26.95
2019-01-24T04:37:53.827Z,25.82
2019-01-24T04:38:28.344Z,25.88
2019-01-24T04:39:04.559Z,25.88
2019-01-24T04:39:39.140Z,24.37
2019-01-24T04:40:17.989Z,25.85
2019-01-24T04:40:52.491Z,26.68
2019-01-24T04:41:27.002Z,28.85
2019-01-24T04:42:01.595Z,24.77
2019-01-24T04:42:36.175Z,24.55
2019-01-24T04:43:10.830Z,24.65
2019-01-24T04:43:45.849Z,27.77
2019-01-24T04:44:20.371Z,24.70
2019-01-24T04:44:54.961Z,24.35
2019-01-24T04:45:29.606Z,23.73
2019-01-24T04:46:04.364Z,26.57
2019-01-24T04:46:38.890Z,26.97
2019-01-24T04:47:13.711Z,27.42
2019-01-24T04:47:48.290Z,24.95
2019-01-24T04:48:22.901Z,26.45
2019-01-24T04:48:57.435Z,27.73
2019-01-24T04:49:31.961Z,25.43
2019-01-24T04:50:10.147Z,23.98
2019-01-24T04:50:44.731Z,25.12
2019-01-24T04:51:19.233Z,26.35
2019-01-24T04:51:53.811Z,26.95
2019-01-24T04:52:28.359Z,28.42
2019-01-24T04:53:03.224Z,22.65
2019-01-24T04:53:37.854Z,23.35
2019-01-24T04:54:12.495Z,24.85
2019-01-24T04:54:47.366Z,23.87
2019-01-24T04:55:21.984Z,23.22
2019-01-24T04:55:56.531Z,28.12
2019-01-24T04:56:31.086Z,26.23
2019-01-24T04:57:07.038Z,24.27
2019-01-24T04:57:41.983Z,25.57
2019-01-24T04:58:16.662Z,26.93
2019-01-24T04:58:51.214Z,24.35
2019-01-24T04:59:25.895Z,24.12
2019-01-24T05:00:00.491Z,25.57
2019-01-24T05:00:35.070Z,25.35
2019-01-24T05:01:09.725Z,26.20
2019-01-24T05:01:44.322Z,25.65
2019-01-24T05:02:18.936Z,25.32
2019-01-24T05:02:53.684Z,25.85
2019-01-24T05:03:28.597Z,24.70
2019-01-24T05:04:03.807Z,24.60
2019-01-24T05:04:38.454Z,26.15
2019-01-24T05:05:13.073Z,23.40
2019-01-24T05:05:47.737Z,25.30
2019-01-24T05:06:22.250Z,27.60
2019-01-24T05:06:56.819Z,25.17
2019-01-24T05:07:31.410Z,24.35
2019-01-24T05:08:05.998Z,23.87
2019-01-24T05:08:40.507Z,24.70
2019-01-24T05:09:15.132Z,27.10
2019-01-24T05:09:49.731Z,25.48
2019-01-24T05:10:25.163Z,26.40
2019-01-24T05:11:00.820Z,22.87
2019-01-24T05:11:35.355Z,27.77
2019-01-24T05:12:10.177Z,24.25
2019-01-24T05:12:45.013Z,26.73
2019-01-24T05:13:19.700Z,26.23
2019-01-24T05:13:54.289Z,24.43
2019-01-24T05:14:28.860Z,24.37
2019-01-24T05:15:04.050Z,26.12
2019-01-24T05:15:38.651Z,26.82
2019-01-24T05:16:13.205Z,26.05
2019-01-24T05:16:48.021Z,25.37
2019-01-24T05:17:23.496Z,25.72
2019-01-24T05:18:05.643Z,24.70
2019-01-24T05:18:40.365Z,24.52
2019-01-24T05:19:14.933Z,24.47
2019-01-24T05:19:49.622Z,25.30
2019-01-24T05:20:24.211Z,23.20
2019-01-24T05:20:58.765Z,24.20
2019-01-24T05:21:33.413Z,24.32
2019-01-24T05:22:07.955Z,23.67
2019-01-24T05:22:42.477Z,29.52
2019-01-24T05:23:16.994Z,26.95
2019-01-24T05:23:51.584Z,25.35
2019-01-24T05:24:26.245Z,25.37
2019-01-24T05:25:00.803Z,24.47
2019-01-24T05:25:35.394Z,21.97
2019-01-24T05:26:09.921Z,24.07
2019-01-24T05:26:44.432Z,24.15
2019-01-24T05:27:19.055Z,22.93
2019-01-24T05:27:53.646Z,22.22
2019-01-24T05:28:28.240Z,21.48
2019-01-24T05:29:02.815Z,22.27
2019-01-24T05:29:37.481Z,23.10
2019-01-24T05:30:17.784Z,20.15
2019-01-24T05:30:52.425Z,21.52
2019-01-24T05:31:27.018Z,21.65
2019-01-24T05:32:01.528Z,21.35
2019-01-24T05:32:36.060Z,23.67
2019-01-24T05:33:10.606Z,22.82
2019-01-24T05:33:45.114Z,22.00
2019-01-24T05:34:19.604Z,22.77
2019-01-24T05:34:55.738Z,20.30
2019-01-24T05:35:34.728Z,23.52
2019-01-24T05:36:06.454Z,22.40
2019-01-24T05:36:41.084Z,22.85
2019-01-24T05:37:15.656Z,23.92
2019-01-24T05:37:50.982Z,21.70
2019-01-24T05:38:25.535Z,22.80
2019-01-24T05:39:00.048Z,20.72
2019-01-24T05:39:34.663Z,23.22
2019-01-24T05:40:12.647Z,21.37
2019-01-24T05:40:46.268Z,21.97
2019-01-24T05:41:20.789Z,21.45
2019-01-24T05:41:55.377Z,20.48
2019-01-24T05:42:29.996Z,18.73
2019-01-24T05:43:04.607Z,20.97
2019-01-24T05:43:39.212Z,21.17
2019-01-24T05:44:13.725Z,22.60
2019-01-24T05:44:48.309Z,19.55
2019-01-24T05:45:22.905Z,19.77
2019-01-24T05:45:57.568Z,19.50
2019-01-24T05:46:32.140Z,22.15
2019-01-24T05:47:06.837Z,20.90
2019-01-24T05:47:41.656Z,20.62
2019-01-24T05:48:16.224Z,21.00
2019-01-24T05:48:50.922Z,22.85
2019-01-24T05:49:25.504Z,20.97
2019-01-24T05:50:00.017Z,20.27
2019-01-24T05:50:34.765Z,20.48
2019-01-24T05:51:09.294Z,19.50
2019-01-24T05:51:43.875Z,20.10
2019-01-24T05:52:19.549Z,21.40
2019-01-24T05:52:54.636Z,21.17
2019-01-24T05:53:29.315Z,19.70
2019-01-24T05:54:04.041Z,20.17
2019-01-24T05:54:38.645Z,21.52
2019-01-24T05:55:14.545Z,19.80
2019-01-24T05:55:50.564Z,17.50
2019-01-24T05:56:25.160Z,23.87
2019-01-24T05:56:59.694Z,21.45
2019-01-24T05:57:34.362Z,20.72
2019-01-24T05:58:08.933Z,19.85
2019-01-24T05:58:43.541Z,19.60
2019-01-24T05:59:18.127Z,21.15
2019-01-24T05:59:54.439Z,19.42
2019-01-24T06:00:32.434Z,21.48
2019-01-24T06:01:09.851Z,22.15
2019-01-24T06:01:45.919Z,22.48
2019-01-24T06:02:20.499Z,20.48
2019-01-24T06:02:55.417Z,21.48
2019-01-24T06:03:29.927Z,22.70
2019-01-24T06:04:10.586Z,20.32
2019-01-24T06:04:45.098Z,20.52
2019-01-24T06:05:19.777Z,18.50
2019-01-24T06:05:54.294Z,19.37
2019-01-24T06:06:28.913Z,22.85
2019-01-24T06:07:03.442Z,18.25
2019-01-24T06:07:37.978Z,20.05
2019-01-24T06:08:12.508Z,20.43
2019-01-24T06:08:47.097Z,21.17
2019-01-24T06:09:21.608Z,19.40
2019-01-24T06:09:56.121Z,19.20
2019-01-24T06:10:30.631Z,21.40
2019-01-24T06:11:05.304Z,18.82
2019-01-24T06:11:39.847Z,18.30
2019-01-24T06:12:14.410Z,21.07
2019-01-24T06:12:48.943Z,20.60
2019-01-24T06:13:23.547Z,21.12
2019-01-24T06:13:58.047Z,20.70
2019-01-24T06:14:32.659Z,21.82
2019-01-24T06:15:10.109Z,23.70
2019-01-24T06:15:44.711Z,20.92
2019-01-24T06:16:19.292Z,20.52
2019-01-24T06:16:59.582Z,21.65
2019-01-24T06:17:34.190Z,19.32
2019-01-24T06:18:08.728Z,20.88
2019-01-24T06:18:43.273Z,21.27
2019-01-24T06:19:17.800Z,19.90
2019-01-24T06:19:52.383Z,20.02
2019-01-24T06:20:26.900Z,19.77
2019-01-24T06:21:01.412Z,21.07
2019-01-24T06:21:36.299Z,20.30
2019-01-24T06:22:10.841Z,19.95
2019-01-24T06:22:45.395Z,19.20
2019-01-24T06:23:19.963Z,20.45
2019-01-24T06:23:54.545Z,23.38
2019-01-24T06:24:29.159Z,20.62
2019-01-24T06:25:05.310Z,20.92
2019-01-24T06:25:39.881Z,20.27
2019-01-24T06:26:14.414Z,20.37
2019-01-24T06:26:48.949Z,20.85
2019-01-24T06:27:23.460Z,21.48
2019-01-24T06:27:57.978Z,21.93
2019-01-24T06:28:32.474Z,18.95
2019-01-24T06:29:06.989Z,20.50
2019-01-24T06:29:41.581Z,21.10
2019-01-24T06:30:21.155Z,20.43
2019-01-24T06:30:55.716Z,21.35
2019-01-24T06:31:30.312Z,19.27
2019-01-24T06:32:05.338Z,22.52
2019-01-24T06:32:39.947Z,20.75
2019-01-24T06:33:14.470Z,20.95
2019-01-24T06:33:49.105Z,22.10
2019-01-24T06:34:23.647Z,20.43
2019-01-24T06:34:58.172Z,20.85
2019-01-24T06:35:32.718Z,22.15
2019-01-24T06:36:07.325Z,21.02
2019-01-24T06:36:41.920Z,21.77
2019-01-24T06:37:16.485Z,20.52
2019-01-24T06:37:51.615Z,19.70
2019-01-24T06:38:26.211Z,21.15
2019-01-24T06:39:00.736Z,20.68
2019-01-24T06:39:35.249Z,22.13
2019-01-24T06:40:12.400Z,21.97
2019-01-24T06:40:46.964Z,23.50
2019-01-24T06:41:21.514Z,23.85
2019-01-24T06:41:56.154Z,23.35
2019-01-24T06:42:30.856Z,21.00
2019-01-24T06:43:05.647Z,20.68
2019-01-24T06:43:42.078Z,22.35
2019-01-24T06:44:16.680Z,23.12
2019-01-24T06:44:51.193Z,22.87
2019-01-24T06:45:25.747Z,22.40
2019-01-24T06:46:00.376Z,22.98
2019-01-24T06:46:35.364Z,22.25
2019-01-24T06:47:10.262Z,20.10
2019-01-24T06:47:44.850Z,25.48
2019-01-24T06:48:19.379Z,23.50
2019-01-24T06:48:53.962Z,19.55
2019-01-24T06:49:30.070Z,23.07
2019-01-24T06:50:07.928Z,24.25
2019-01-24T06:50:42.510Z,21.02
2019-01-24T06:51:17.075Z,22.80
2019-01-24T06:51:51.714Z,22.15
2019-01-24T06:52:26.233Z,20.97
2019-01-24T06:53:03.349Z,23.50
2019-01-24T06:53:37.946Z,21.50
2019-01-24T06:54:12.455Z,22.30
2019-01-24T06:54:47.033Z,23.67
2019-01-24T06:55:26.886Z,22.90
2019-01-24T06:56:01.467Z,24.50
2019-01-24T06:56:36.033Z,23.30
2019-01-24T06:57:10.545Z,24.47
2019-01-24T06:57:45.052Z,22.40
2019-01-24T06:58:19.572Z,22.80
2019-01-24T06:58:54.157Z,21.55
2019-01-24T06:59:28.826Z,22.10
2019-01-24T07:00:04.154Z,24.30
2019-01-24T07:00:38.747Z,21.75
2019-01-24T07:01:13.284Z,23.85
2019-01-24T07:01:47.833Z,21.73
2019-01-24T07:02:22.452Z,22.95
2019-01-24T07:02:57.393Z,24.25
2019-01-24T07:03:31.988Z,22.95
2019-01-24T07:04:06.502Z,23.70
2019-01-24T07:04:41.169Z,22.80
2019-01-24T07:05:16.138Z,24.37
2019-01-24T07:05:55.312Z,22.07
2019-01-24T07:06:26.922Z,24.40
2019-01-24T07:07:01.418Z,21.57
2019-01-24T07:07:35.965Z,21.50
2019-01-24T07:08:10.488Z,23.60
2019-01-24T07:08:45.129Z,25.52
2019-01-24T07:09:19.627Z,23.22
2019-01-24T07:09:54.210Z,23.67
2019-01-24T07:10:28.970Z,24.87
2019-01-24T07:11:04.358Z,19.42
2019-01-24T07:11:39.092Z,23.75
2019-01-24T07:12:13.624Z,22.70
2019-01-24T07:12:48.230Z,21.48
2019-01-24T07:13:22.767Z,25.62
2019-01-24T07:13:57.418Z,24.07
2019-01-24T07:14:32.095Z,23.65
2019-01-24T07:15:09.779Z,22.55
2019-01-24T07:15:44.316Z,22.13
2019-01-24T07:16:18.849Z,22.62
2019-01-24T07:16:53.382Z,23.32
2019-01-24T07:17:28.041Z,22.13
2019-01-24T07:18:04.035Z,22.07
2019-01-24T07:18:38.557Z,22.62
2019-01-24T07:19:13.489Z,22.25
2019-01-24T07:19:48.171Z,23.12
2019-01-24T07:20:22.837Z,22.37
2019-01-24T07:20:57.345Z,24.45
2019-01-24T07:21:31.941Z,22.52
2019-01-24T07:22:11.486Z,24.10
2019-01-24T07:22:46.137Z,20.72
2019-01-24T07:23:20.650Z,22.05
2019-01-24T07:23:55.267Z,22.77
2019-01-24T07:24:52.742Z,22.58
2019-01-24T07:25:29.421Z,19.45
2019-01-24T07:26:05.671Z,21.57
2019-01-24T07:26:41.472Z,21.70
2019-01-24T07:27:15.992Z,22.95
2019-01-24T07:27:50.658Z,22.15
2019-01-24T07:28:25.198Z,23.07
2019-01-24T07:28:59.877Z,25.05
2019-01-24T07:29:39.340Z,23.47
2019-01-24T07:30:16.340Z,21.52
2019-01-24T07:30:50.933Z,26.40
2019-01-24T07:31:25.424Z,23.30
2019-01-24T07:32:00.102Z,22.22
2019-01-24T07:32:35.545Z,23.12
2019-01-24T07:33:10.168Z,23.25
2019-01-24T07:33:44.787Z,20.90